Grover, Wyoming
Current Conditions -  °F | °C
As of 6:55 AM on Saturday 22 Nov 2014 (Local Time) from KAFO Reporting Station
Broken Clouds Broken Clouds  
Wind Chill: 27°   Ceiling: 3400
Heat Index: 37°   Visibility: 10mi
Dew Point: 25°   Wind: 18mph
Humidity: 60%   Direction: 160°SSE
Pressure: 29.8"   Gusts: 25mph
Location:  42.79°N, 110.94°W
Report Text: KAFO 221355Z AUTO 16016G22KT 10SM SCT012 SCT019 BKN034 03/M04 A2980 RMK AO2
Loading
Personal Weather Stations






























Interactive Weather Map New forecast layout! Learn more

10-Day Weather Forecast

Advertisements
Track Severe Weather on mobile